Main page
Satellite images 15-day forecastsClimateMarine weather Cyclones Lightning AirportsFAQ Newsletter About
Weather : Europe Africa North America South America Asia Australia-Oceania Others
Languages Contact

Singapore, Singapore

Military airbase Paya Lebar

latitude: 01-22N, longitude: 103-55E, elevation: 18 m


METAR: WSAP 201500Z 27006KT 9999 4500SW -TSRA FEW015CB SCT016TCU BKN300 27/24 Q1013
short-TAF: out of date (51499 hours)
long-TAF: WSAP 201700Z 2018/2124 18008KT 7000 FEW018CB SCT020

Time: 04:01 (20:01 UTC)

Current weather observation

The report was made 5 hours and 1 minutes ago, at 15:00 UTC  
Wind 06 kt from the West
Temperature 27°C
Humidity 84%
Pressure 1013 hPa
Visibility 4500 m
Few clouds at a height of 1500 ft , Cumulonimbus.
Scattered clouds at a height of 1600 ft , Towering cumulus.
Broken clouds at a height of 30000 ft
light thunderstorm rain

Change units

Forecast

The report was made 2 hours and 52 minutes ago, at 17:09 UTC  
Forecast valid from 20 at 18 UTC to 21 at 24 UTC
Wind 08 kt from the South
Visibility 7000 m
Few clouds at a height of 1800 ft , Cumulonimbus.
Scattered clouds at a height of 2000 ft
The information on this site is subject to a disclaimer
Weather : Europe Africa North America South America Asia Australia-Oceania Others
Satellite images 15-day forecastsClimateMarine weather Cyclones Lightning AirportsFAQ Languages Contact Newsletter About